Time;durP1;ratioP1;P1;durP2;ratioP2;P2;SDS_P1;SDS_P2;PMS_P1;PMS_P2;Temp;Humidity;BMP_temperature;BMP_pressure;BME280_temperature;BME280_humidity;BME280_pressure;Samples;Min_cycle;Max_cycle;Signal;HPM_P1;HPM_P2
2023/09/16 00:04:58;;;;;;;2.70;0.90;;;;;;;22.53;46.80;101306.41;16108771;19;129375;-54
2023/09/16 00:10:20;;;;;;;1.80;1.00;;;;;;;22.52;47.00;101303.91;16109431;19;129620;-53
2023/09/16 00:15:48;;;;;;;2.05;0.60;;;;;;;22.52;46.55;101301.13;16109205;19;129535;-52
2023/09/16 00:21:10;;;;;;;1.45;0.95;;;;;;;22.50;46.74;101294.97;16112177;19;132234;-51
2023/09/16 00:26:34;;;;;;;1.20;0.63;;;;;;;22.48;46.70;101295.22;16112614;19;130781;-51
2023/09/16 00:31:56;;;;;;;0.93;0.70;;;;;;;22.49;46.79;101287.69;16103758;19;130559;-52
2023/09/16 00:37:18;;;;;;;1.45;0.70;;;;;;;22.48;46.71;101291.59;16127967;19;129577;-53
2023/09/16 00:42:40;;;;;;;1.98;0.60;;;;;;;22.46;46.98;101286.28;16122301;19;129729;-53
2023/09/16 00:48:03;;;;;;;1.15;0.60;;;;;;;22.46;46.64;101291.00;16122590;19;130772;-54
2023/09/16 00:53:26;;;;;;;2.22;0.85;;;;;;;22.44;47.01;101272.59;16118509;19;131016;-53
2023/09/16 00:58:48;;;;;;;1.75;0.93;;;;;;;22.44;46.40;101280.13;16122581;19;133536;-51
2023/09/16 01:04:11;;;;;;;1.00;0.60;;;;;;;22.42;46.72;101272.00;16121932;19;130433;-53
2023/09/16 01:09:33;;;;;;;1.95;0.60;;;;;;;22.41;46.51;101278.69;16118647;19;131420;-52
2023/09/16 01:14:55;;;;;;;1.52;0.70;;;;;;;22.40;46.54;101279.78;16116967;19;130302;-51
2023/09/16 01:20:18;;;;;;;1.88;0.82;;;;;;;22.40;46.60;101279.78;16112953;19;129396;-54
2023/09/16 01:25:40;;;;;;;0.88;0.60;;;;;;;22.39;46.50;101267.00;16116431;19;129588;-53
2023/09/16 01:31:06;;;;;;;0.65;0.52;;;;;;;22.39;46.63;101269.78;16115392;19;132398;-54
2023/09/16 01:36:31;;;;;;;0.70;0.50;;;;;;;22.37;46.51;101269.19;16115101;19;134148;-51
2023/09/16 01:41:55;;;;;;;0.82;0.50;;;;;;;22.36;46.56;101273.09;16121926;19;132016;-54
2023/09/16 01:47:17;;;;;;;1.20;0.70;;;;;;;22.35;46.22;101265.81;16112480;19;130754;-53
2023/09/16 01:52:39;;;;;;;1.30;0.85;;;;;;;22.34;46.12;101254.94;16110956;19;130561;-52
2023/09/16 01:58:01;;;;;;;1.75;0.63;;;;;;;22.34;46.33;101254.94;16113204;19;131251;-52
2023/09/16 02:03:23;;;;;;;1.77;0.90;;;;;;;22.32;46.46;101255.19;16115594;19;130551;-53
2023/09/16 02:08:45;;;;;;;0.90;0.60;;;;;;;22.32;46.32;101254.38;16117879;19;130656;-51
2023/09/16 02:14:12;;;;;;;1.30;0.98;;;;;;;22.32;46.20;101251.59;16119443;19;130778;-55
2023/09/16 02:19:34;;;;;;;2.17;0.80;;;;;;;22.30;46.35;101246.25;16118053;19;129460;-51
2023/09/16 02:24:56;;;;;;;2.03;0.85;;;;;;;22.29;46.45;101247.34;16116754;19;130727;-52
2023/09/16 02:30:18;;;;;;;1.42;0.90;;;;;;;22.29;46.36;101244.56;16116704;19;131384;-54
2023/09/16 02:35:40;;;;;;;1.38;0.60;;;;;;;22.28;46.53;101254.03;16115129;19;131580;-54
2023/09/16 02:41:03;;;;;;;0.95;0.77;;;;;;;22.28;46.24;101252.09;16112786;19;130055;-51
2023/09/16 02:46:25;;;;;;;1.25;0.90;;;;;;;22.27;46.63;101250.41;16113895;19;130823;-55
2023/09/16 02:51:48;;;;;;;2.08;0.75;;;;;;;22.26;46.38;101245.94;16110483;19;131386;-51
2023/09/16 02:57:10;;;;;;;2.28;0.90;;;;;;;22.25;46.30;101243.44;16111783;19;130121;-51
2023/09/16 03:02:32;;;;;;;1.38;0.70;;;;;;;22.25;46.24;101254.56;16111160;19;130764;-55
2023/09/16 03:07:55;;;;;;;1.00;0.90;;;;;;;22.24;46.41;101252.88;16112717;19;131018;-53
2023/09/16 03:13:16;;;;;;;1.55;0.98;;;;;;;22.23;46.69;101245.63;16111984;19;129533;-54
2023/09/16 03:18:38;;;;;;;1.30;0.95;;;;;;;22.22;46.34;101238.38;16112827;19;131577;-51
2023/09/16 03:24:00;;;;;;;1.10;0.80;;;;;;;22.21;46.39;101240.34;16114294;19;130021;-55
2023/09/16 03:29:22;;;;;;;0.70;0.70;;;;;;;22.20;46.58;101221.91;16107814;19;129529;-52
2023/09/16 03:34:45;;;;;;;1.60;1.02;;;;;;;22.19;46.35;101216.56;16112078;19;130232;-54
2023/09/16 03:40:07;;;;;;;1.25;0.90;;;;;;;22.18;45.90;101223.25;16111388;19;131126;-55
2023/09/16 03:45:29;;;;;;;2.08;0.95;;;;;;;22.18;46.12;101220.47;16110078;19;130412;-53
2023/09/16 03:50:51;;;;;;;2.45;0.80;;;;;;;22.17;46.09;101219.63;16113605;19;132308;-53
2023/09/16 03:56:13;;;;;;;2.45;1.00;;;;;;;22.18;45.85;101220.47;16107028;19;131438;-53
2023/09/16 04:01:35;;;;;;;1.25;0.75;;;;;;;22.17;46.23;101216.00;16107171;19;131295;-52
2023/09/16 04:06:57;;;;;;;1.42;0.80;;;;;;;22.16;46.15;101217.94;16107044;19;130623;-54
2023/09/16 04:12:19;;;;;;;1.25;1.02;;;;;;;22.16;46.20;101219.88;16108474;19;131051;-51
2023/09/16 04:17:41;;;;;;;1.52;1.00;;;;;;;22.15;46.09;101209.88;16107529;19;131547;-54
2023/09/16 04:23:03;;;;;;;1.77;1.00;;;;;;;22.13;46.00;101212.88;16108559;19;130096;-54
2023/09/16 04:28:29;;;;;;;1.23;0.88;;;;;;;22.13;45.99;101212.88;16107187;19;130247;-54
2023/09/16 04:33:51;;;;;;;1.33;0.80;;;;;;;22.12;46.07;101208.41;16102799;19;130397;-52
2023/09/16 04:39:14;;;;;;;1.27;0.80;;;;;;;22.11;45.80;101213.16;16107580;19;129590;-53
2023/09/16 04:44:38;;;;;;;1.10;0.90;;;;;;;22.11;46.24;101203.94;16103261;19;131872;-50
2023/09/16 04:50:00;;;;;;;1.47;1.07;;;;;;;22.09;46.09;101204.22;16105715;19;129813;-49
2023/09/16 04:55:22;;;;;;;2.60;0.95;;;;;;;22.09;46.26;101201.44;16106546;19;132170;-48
2023/09/16 05:00:45;;;;;;;1.35;0.90;;;;;;;22.09;45.56;101212.59;16103636;19;129576;-50
2023/09/16 05:06:06;;;;;;;1.15;0.90;;;;;;;22.09;46.06;101218.16;16103651;19;129176;-53
2023/09/16 05:11:29;;;;;;;1.75;1.08;;;;;;;22.09;45.97;101207.00;16103459;19;131335;-56
2023/09/16 05:16:51;;;;;;;1.20;0.80;;;;;;;22.07;45.89;101203.63;16100342;19;129975;-49
2023/09/16 05:22:13;;;;;;;1.70;0.80;;;;;;;22.07;45.87;101198.06;16121365;19;129575;-48
2023/09/16 05:27:35;;;;;;;1.23;1.00;;;;;;;22.08;45.98;101210.06;16115057;19;131910;-52
2023/09/16 05:32:57;;;;;;;1.63;1.00;;;;;;;22.06;45.86;101207.53;16115019;19;130397;-52
2023/09/16 05:38:19;;;;;;;1.63;1.10;;;;;;;22.05;46.00;101203.06;16121403;19;130269;-61
2023/09/16 05:43:41;;;;;;;2.75;1.00;;;;;;;22.05;46.06;101199.44;16109802;19;131419;-58
2023/09/16 05:49:09;;;;;;;3.42;2.90;;;;;;;22.00;45.61;101186.31;16115599;19;129453;-51
2023/09/16 05:54:32;;;;;;;9.70;4.05;;;;;;;21.93;45.00;101194.88;16117395;19;129524;-54
2023/09/16 05:59:54;;;;;;;7.05;4.63;;;;;;;21.87;44.80;101198.69;16120581;19;131073;-51
2023/09/16 06:05:15;;;;;;;11.02;5.05;;;;;;;21.82;44.30;101207.84;16117010;19;131978;-57
2023/09/16 06:10:40;;;;;;;6.00;4.27;;;;;;;21.82;44.05;101212.59;16116620;19;129496;-56
2023/09/16 06:16:02;;;;;;;8.30;5.00;;;;;;;21.84;44.45;101218.75;16117147;19;130873;-53
2023/09/16 06:21:26;;;;;;;6.18;4.95;;;;;;;21.89;43.72;101217.94;16115310;19;129724;-52
2023/09/16 06:26:48;;;;;;;8.52;5.25;;;;;;;21.95;43.93;101219.66;16120806;19;130840;-52
2023/09/16 06:32:10;;;;;;;7.20;4.85;;;;;;;21.99;44.18;101218.06;16110416;19;131293;-53
2023/09/16 06:37:32;;;;;;;8.35;5.05;;;;;;;22.05;43.86;101219.78;16118718;19;129799;-55
2023/09/16 06:42:54;;;;;;;8.70;5.15;;;;;;;22.09;43.87;101212.59;16113431;19;130164;-53
2023/09/16 06:48:16;;;;;;;12.57;4.85;;;;;;;22.13;43.52;101213.75;16111471;19;130116;-56
2023/09/16 06:53:38;;;;;;;7.80;4.35;;;;;;;22.12;43.65;101223.22;16106475;19;130948;-52
2023/09/16 06:59:01;;;;;;;10.38;5.10;;;;;;;22.13;43.91;101229.59;16114978;19;129548;-53
2023/09/16 07:04:40;;;;;;;7.63;4.50;;;;;;;22.11;44.18;101227.09;16109730;19;130547;-49
2023/09/16 07:10:02;;;;;;;6.30;4.07;;;;;;;22.10;43.94;101225.41;16108578;19;130993;-51
2023/09/16 07:15:25;;;;;;;7.25;4.05;;;;;;;22.09;44.23;101226.50;16112035;19;130117;-50
2023/09/16 07:20:48;;;;;;;8.88;3.95;;;;;;;22.07;44.11;101231.50;16117632;19;129413;-46
2023/09/16 07:26:10;;;;;;;8.85;3.50;;;;;;;22.07;44.27;101234.28;16112470;19;131507;-52
2023/09/16 07:31:32;;;;;;;8.57;3.30;;;;;;;22.06;44.47;101238.19;16111594;19;129585;-50
2023/09/16 07:36:56;;;;;;;9.02;2.95;;;;;;;22.07;44.44;101230.69;16111942;19;131480;-51
2023/09/16 07:42:18;;;;;;;7.03;3.25;;;;;;;22.07;44.50;101237.06;16112603;19;129342;-51
2023/09/16 07:47:40;;;;;;;8.35;2.83;;;;;;;22.06;44.47;101238.19;16113220;19;129556;-53
2023/09/16 07:53:02;;;;;;;9.63;3.08;;;;;;;22.06;44.81;101235.38;16113579;19;129632;-49
2023/09/16 07:58:24;;;;;;;7.65;3.58;;;;;;;22.06;44.44;101240.13;16112303;19;134208;-53
2023/09/16 08:03:46;;;;;;;7.90;2.88;;;;;;;22.05;44.83;101244.03;16111005;19;131095;-54
2023/09/16 08:09:09;;;;;;;4.78;3.05;;;;;;;22.07;44.81;101253.78;16110219;19;129536;-53
2023/09/16 08:14:31;;;;;;;8.45;2.92;;;;;;;22.06;44.81;101249.31;16110907;19;129705;-51
2023/09/16 08:19:53;;;;;;;4.38;2.67;;;;;;;22.07;44.78;101251.00;16111240;19;130488;-51
2023/09/16 08:25:15;;;;;;;6.43;3.03;;;;;;;22.07;44.72;101250.19;16109875;19;129198;-51
2023/09/16 08:30:37;;;;;;;5.93;2.58;;;;;;;22.07;45.09;101258.53;16107870;19;130355;-49
2023/09/16 08:35:59;;;;;;;4.20;2.33;;;;;;;22.06;44.76;101266.03;16108598;19;129789;-53
2023/09/16 08:41:34;;;;;;;7.80;2.70;;;;;;;22.07;45.14;101270.50;16107017;19;129570;-54
2023/09/16 08:47:06;;;;;;;3.88;2.75;;;;;;;22.08;45.06;101274.97;16107442;19;130413;-53
2023/09/16 08:52:32;;;;;;;5.03;2.80;;;;;;;22.08;45.05;101285.31;16109703;19;130203;-51
2023/09/16 08:58:00;;;;;;;4.18;2.30;;;;;;;22.09;45.18;101290.59;16127303;19;129728;-52
2023/09/16 09:03:22;;;;;;;5.45;2.50;;;;;;;22.09;45.16;101286.97;16120347;19;129521;-54
2023/09/16 09:08:44;;;;;;;6.00;2.78;;;;;;;22.08;45.35;101274.97;16124084;19;130150;-53
2023/09/16 09:14:09;;;;;;;6.10;2.63;;;;;;;22.09;45.11;101276.66;16128432;19;131365;-51
2023/09/16 09:19:31;;;;;;;4.93;2.40;;;;;;;22.08;45.27;101272.19;16120275;19;129527;-54
2023/09/16 09:24:54;;;;;;;5.65;2.75;;;;;;;22.10;45.33;101297.00;16120371;19;130032;-51
2023/09/16 09:30:16;;;;;;;6.20;2.67;;;;;;;22.10;45.32;101295.06;16121726;19;129831;-47
2023/09/16 09:35:38;;;;;;;5.15;2.47;;;;;;;22.10;45.53;101297.84;16122867;19;130008;-54
2023/09/16 09:41:01;;;;;;;3.63;2.30;;;;;;;22.10;45.58;101305.34;16121118;19;129730;-53
2023/09/16 09:46:23;;;;;;;4.50;2.47;;;;;;;22.11;45.75;101305.13;16121385;19;129846;-53
2023/09/16 09:51:48;;;;;;;4.60;2.80;;;;;;;22.12;45.42;101305.94;16123716;19;130191;-54
2023/09/16 09:57:11;;;;;;;3.22;2.28;;;;;;;22.12;45.50;101294.78;16119123;19;129861;-54
2023/09/16 10:02:33;;;;;;;5.63;2.60;;;;;;;22.12;45.55;101295.66;16123112;19;131361;-50
2023/09/16 10:07:55;;;;;;;4.38;2.40;;;;;;;22.12;45.50;101286.44;16119048;19;130042;-54
2023/09/16 10:13:18;;;;;;;4.80;3.22;;;;;;;22.13;45.51;101283.41;16120207;19;130546;-55
2023/09/16 10:18:41;;;;;;;3.83;2.33;;;;;;;22.12;45.72;101278.94;16120631;19;129274;-51
2023/09/16 10:24:04;;;;;;;2.67;2.20;;;;;;;22.13;45.69;101275.06;16124394;19;129366;-54
2023/09/16 10:29:30;;;;;;;3.33;2.42;;;;;;;22.15;45.73;101276.75;16119245;19;130079;-54
2023/09/16 10:34:54;;;;;;;3.50;2.05;;;;;;;22.15;45.50;101276.75;16119225;19;129609;-51
2023/09/16 10:40:18;;;;;;;3.97;2.35;;;;;;;22.15;45.72;101271.16;16119181;19;129333;-54
2023/09/16 10:45:41;;;;;;;3.90;2.20;;;;;;;22.15;45.72;101273.94;16118590;19;130473;-52
2023/09/16 10:51:16;;;;;;;3.65;2.28;;;;;;;22.16;45.77;101273.69;16115072;19;130646;-49
2023/09/16 10:56:43;;;;;;;3.92;2.22;;;;;;;22.17;45.86;101274.50;16118084;19;129562;-53
2023/09/16 11:02:23;;;;;;;4.88;2.22;;;;;;;22.18;45.91;101270.63;16115386;19;130741;-52
2023/09/16 11:07:46;;;;;;;3.13;2.00;;;;;;;22.17;45.90;101268.94;16115129;19;129640;-52
2023/09/16 11:13:08;;;;;;;2.20;1.90;;;;;;;22.16;46.00;101256.97;16119433;19;129388;-52
2023/09/16 11:18:31;;;;;;;3.78;2.35;;;;;;;22.17;45.92;101249.44;16113951;19;130025;-54
2023/09/16 11:23:53;;;;;;;2.83;2.00;;;;;;;22.17;45.91;101247.50;16116751;19;129423;-54
2023/09/16 11:29:17;;;;;;;3.40;2.03;;;;;;;22.18;45.97;101251.97;16116980;19;130953;-52
2023/09/16 11:34:40;;;;;;;2.80;2.33;;;;;;;22.19;45.86;101241.66;16118964;19;131072;-55
2023/09/16 11:40:08;;;;;;;2.65;2.10;;;;;;;22.19;45.80;101234.16;16118307;19;130468;-50
2023/09/16 11:45:32;;;;;;;3.30;2.05;;;;;;;22.19;45.84;101225.78;16120184;19;129370;-53
2023/09/16 11:50:54;;;;;;;3.53;2.42;;;;;;;22.18;46.32;101226.88;16118918;19;130594;-54
2023/09/16 11:56:18;;;;;;;3.08;2.20;;;;;;;22.19;46.24;101231.34;16114544;19;130599;-53
2023/09/16 12:01:40;;;;;;;4.28;2.25;;;;;;;22.20;46.12;101230.25;16110763;19;129493;-52
2023/09/16 12:07:04;;;;;;;4.03;2.40;;;;;;;22.20;46.21;101230.25;16112348;19;129893;-51
2023/09/16 12:12:27;;;;;;;3.47;2.10;;;;;;;22.21;46.10;101219.97;16114464;19;129603;-51
2023/09/16 12:17:49;;;;;;;2.05;1.90;;;;;;;22.22;46.15;101216.06;16107459;19;135345;-47
2023/09/16 12:23:13;;;;;;;2.20;2.00;;;;;;;22.22;46.25;101210.50;16110747;19;129871;-51
2023/09/16 12:28:38;;;;;;;4.47;2.08;;;;;;;22.22;46.36;101211.34;16118200;19;129545;-52
2023/09/16 12:34:00;;;;;;;2.10;1.90;;;;;;;22.23;46.16;101213.03;16125938;19;129267;-49
2023/09/16 12:39:23;;;;;;;3.38;2.30;;;;;;;22.25;46.06;101204.41;16127134;19;130353;-56
2023/09/16 12:44:45;;;;;;;2.50;2.13;;;;;;;22.25;46.31;101215.56;16127003;19;131185;-52
2023/09/16 12:50:08;;;;;;;2.72;2.10;;;;;;;22.25;46.02;101204.41;16129110;19;131765;-54
2023/09/16 12:55:29;;;;;;;4.20;2.47;;;;;;;22.26;46.62;101200.53;16126414;19;134353;-51
2023/09/16 13:00:52;;;;;;;3.45;2.25;;;;;;;22.26;46.48;101192.16;16122176;19;129436;-50
2023/09/16 13:06:14;;;;;;;4.40;2.47;;;;;;;22.27;46.55;101191.06;16123594;19;130671;-49
2023/09/16 13:11:36;;;;;;;2.60;2.40;;;;;;;22.27;46.39;101203.03;16122846;19;130189;-52
2023/09/16 13:16:58;;;;;;;2.55;1.95;;;;;;;22.28;46.32;101199.16;16126267;19;130942;-54
2023/09/16 13:22:20;;;;;;;4.03;2.30;;;;;;;22.28;46.14;101196.34;16123663;19;129681;-51
2023/09/16 13:27:42;;;;;;;3.03;2.47;;;;;;;22.28;46.33;101187.13;16122470;19;129690;-54
2023/09/16 13:33:05;;;;;;;2.13;1.95;;;;;;;22.29;46.45;101183.25;16121951;19;129434;-53
2023/09/16 13:38:27;;;;;;;4.43;2.40;;;;;;;22.30;46.15;101178.53;16120517;19;131189;-49
2023/09/16 13:43:49;;;;;;;2.80;2.10;;;;;;;22.30;46.67;101173.78;16125002;19;134656;-51
2023/09/16 13:49:11;;;;;;;3.17;2.45;;;;;;;22.32;46.41;101176.31;16121904;19;130557;-51
2023/09/16 13:54:33;;;;;;;2.47;2.28;;;;;;;22.32;46.87;101170.75;16118901;19;131803;-52
2023/09/16 13:59:55;;;;;;;2.33;2.13;;;;;;;22.33;46.31;101178.84;16110655;19;131060;-51
2023/09/16 14:05:18;;;;;;;2.60;2.20;;;;;;;22.34;46.60;101177.72;16111138;19;131972;-47
2023/09/16 14:10:40;;;;;;;4.65;2.40;;;;;;;22.36;46.66;101167.16;16118223;19;129899;-49
2023/09/16 14:16:02;;;;;;;2.85;2.47;;;;;;;22.39;46.78;101175.00;16111327;19;129678;-55
2023/09/16 14:21:24;;;;;;;5.03;2.67;;;;;;;22.41;46.62;101174.72;16112550;19;130322;-54
2023/09/16 14:26:46;;;;;;;2.30;2.10;;;;;;;22.41;46.76;101175.53;16119815;19;130830;-50
2023/09/16 14:32:08;;;;;;;2.97;2.40;;;;;;;22.43;46.87;101166.94;16113606;19;129652;-50
2023/09/16 14:37:30;;;;;;;3.15;2.03;;;;;;;22.44;46.65;101166.66;16117053;19;130516;-52
2023/09/16 14:42:52;;;;;;;3.05;2.33;;;;;;;22.46;46.67;101179.50;16115268;19;130879;-55
2023/09/16 14:48:14;;;;;;;3.53;2.75;;;;;;;22.47;46.90;101172.81;16114314;19;131199;-51
2023/09/16 14:53:36;;;;;;;4.88;2.55;;;;;;;22.48;46.52;101168.91;16111604;19;129402;-56
2023/09/16 14:58:58;;;;;;;3.35;2.40;;;;;;;22.48;47.01;101163.34;16111602;19;131571;-54
2023/09/16 15:04:20;;;;;;;2.63;2.42;;;;;;;22.47;47.03;101162.50;16111013;19;129608;-52
2023/09/16 15:09:42;;;;;;;3.00;2.08;;;;;;;22.48;46.85;101160.56;16112812;19;130355;-54
2023/09/16 15:15:04;;;;;;;2.92;2.65;;;;;;;22.47;46.70;101167.25;16110089;19;130372;-52
2023/09/16 15:20:26;;;;;;;3.58;3.05;;;;;;;22.46;47.38;101179.50;16111959;19;129951;-55
2023/09/16 15:25:51;;;;;;;3.42;2.50;;;;;;;22.46;47.34;101176.72;16112249;19;136705;-57
2023/09/16 15:31:13;;;;;;;3.75;2.70;;;;;;;22.44;47.06;101179.78;16107076;19;131988;-53
2023/09/16 15:36:35;;;;;;;4.80;2.83;;;;;;;22.44;47.36;101180.59;16104745;19;131252;-54
2023/09/16 15:41:57;;;;;;;4.60;2.75;;;;;;;22.43;47.05;101190.06;16109283;19;131348;-52
2023/09/16 15:47:19;;;;;;;3.88;2.42;;;;;;;22.43;47.30;101187.28;16109000;19;130260;-51
2023/09/16 15:52:41;;;;;;;3.03;2.70;;;;;;;22.43;47.10;101184.50;16110785;19;129681;-53
2023/09/16 15:58:03;;;;;;;6.40;3.05;;;;;;;22.43;47.38;101184.50;16111843;19;131110;-47
2023/09/16 16:03:27;;;;;;;4.82;3.20;;;;;;;22.43;47.41;101178.91;16107802;19;131284;-54
2023/09/16 16:08:49;;;;;;;4.15;2.80;;;;;;;22.43;47.64;101184.50;16110330;19;130431;-53
2023/09/16 16:14:11;;;;;;;6.97;3.42;;;;;;;22.44;48.17;101179.78;16108090;19;131432;-53
2023/09/16 16:19:33;;;;;;;8.68;4.18;;;;;;;22.49;49.14;101185.38;16108182;19;130111;-52
2023/09/16 16:24:57;;;;;;;8.35;4.80;;;;;;;22.52;49.81;101181.22;16107361;19;131530;-52
2023/09/16 16:30:20;;;;;;;10.63;4.57;;;;;;;22.53;49.75;101180.09;16112756;19;131088;-52
2023/09/16 16:35:42;;;;;;;7.90;4.63;;;;;;;22.54;50.60;101179.84;16108623;19;130925;-54
2023/09/16 16:41:04;;;;;;;7.97;5.13;;;;;;;22.56;50.56;101176.78;16110795;19;130217;-52
2023/09/16 16:46:26;;;;;;;5.80;4.45;;;;;;;22.56;51.02;101179.56;16106136;19;132608;-50
2023/09/16 16:51:48;;;;;;;8.85;5.40;;;;;;;22.57;51.14;101179.31;16110941;19;131139;-54
2023/09/16 16:57:10;;;;;;;9.70;5.35;;;;;;;22.57;51.80;101182.09;16107696;19;129832;-49
2023/09/16 17:02:33;;;;;;;9.38;5.47;;;;;;;22.59;51.68;101190.19;16106249;19;130728;-52
2023/09/16 17:07:56;;;;;;;29.23;6.70;;;;;;;22.56;51.92;101176.78;16107313;19;129938;-52
2023/09/16 17:13:18;;;;;;;16.88;5.63;;;;;;;22.59;52.39;101167.88;16102377;19;129523;-50
2023/09/16 17:18:40;;;;;;;12.15;5.80;;;;;;;22.63;52.37;101162.59;16124089;19;129815;-49
2023/09/16 17:24:03;;;;;;;13.40;5.28;;;;;;;22.66;52.34;101170.44;16120934;19;129643;-51
2023/09/16 17:29:27;;;;;;;9.27;5.15;;;;;;;22.67;52.26;101170.16;16124592;19;129590;-52
2023/09/16 17:34:49;;;;;;;9.55;4.63;;;;;;;22.70;52.18;101178.00;16122780;19;131139;-51
2023/09/16 17:40:11;;;;;;;7.53;4.85;;;;;;;22.71;52.15;101178.84;16122658;19;130016;-57
2023/09/16 17:45:33;;;;;;;8.98;4.65;;;;;;;22.73;52.08;101185.84;16120911;19;129617;-54
2023/09/16 17:50:56;;;;;;;6.72;3.70;;;;;;;22.75;52.08;101188.34;16117833;19;131469;-50
2023/09/16 17:56:18;;;;;;;9.00;4.07;;;;;;;22.76;51.83;101201.19;16120256;19;130179;-54
2023/09/16 18:01:41;;;;;;;11.02;3.95;;;;;;;22.76;51.84;101200.38;16113366;19;130263;-54
2023/09/16 18:07:03;;;;;;;6.95;3.50;;;;;;;22.78;52.00;101201.78;16121838;19;131084;-51
2023/09/16 18:12:30;;;;;;;10.73;3.78;;;;;;;22.80;51.49;101202.34;16117333;19;130546;-51
2023/09/16 18:17:52;;;;;;;7.57;3.13;;;;;;;22.83;51.77;101212.13;16112154;19;131011;-55
2023/09/16 18:23:17;;;;;;;7.88;3.60;;;;;;;22.86;51.82;101218.00;16110171;19;129864;-52
2023/09/16 18:28:39;;;;;;;5.78;3.55;;;;;;;22.89;51.59;101225.00;16114929;19;131178;-52
2023/09/16 18:34:03;;;;;;;5.18;3.45;;;;;;;22.92;51.31;101241.22;16120481;19;130188;-52
2023/09/16 18:39:28;;;;;;;5.53;3.67;;;;;;;22.95;51.59;101246.28;16122014;19;131110;-50
2023/09/16 18:44:50;;;;;;;;;;;;;;;22.93;51.53;101245.69;16123449;19;131756;-45
2023/09/16 18:50:12;;;;;;;5.65;2.95;;;;;;;22.97;51.18;101260.78;16121701;19;129861;-49
2023/09/16 18:55:36;;;;;;;4.65;2.92;;;;;;;22.97;51.16;101260.78;16113499;19;130380;-53
2023/09/16 19:00:59;;;;;;;4.78;2.97;;;;;;;22.97;51.23;101269.16;16092580;19;130498;-50
2023/09/16 19:06:21;;;;;;;4.88;3.00;;;;;;;23.01;51.20;101283.41;16116703;19;130889;-50
2023/09/16 19:11:43;;;;;;;9.50;4.20;;;;;;;23.02;51.13;101279.53;16117727;19;129837;-47
2023/09/16 19:17:06;;;;;;;4.55;3.10;;;;;;;23.02;50.80;101283.13;16116032;19;130438;-50
2023/09/16 19:22:28;;;;;;;5.72;3.38;;;;;;;23.04;50.93;101274.53;16113514;19;130302;-54
2023/09/16 19:27:50;;;;;;;5.07;2.75;;;;;;;23.05;50.88;101274.25;16114169;19;129787;-51
2023/09/16 19:33:12;;;;;;;12.32;3.00;;;;;;;23.05;50.95;101281.78;16110145;19;130990;-50
2023/09/16 19:38:37;;;;;;;13.45;3.30;;;;;;;23.05;51.16;101279.81;16109597;19;131287;-48
2023/09/16 19:44:02;;;;;;;9.73;3.03;;;;;;;23.07;51.18;101276.78;16116825;19;129858;-44
2023/09/16 19:49:24;;;;;;;7.07;3.53;;;;;;;23.09;51.17;101284.88;16109959;19;129046;-50
2023/09/16 19:54:46;;;;;;;12.82;3.50;;;;;;;23.08;51.02;101277.59;16107551;19;130618;-53
2023/09/16 20:00:09;;;;;;;9.63;3.60;;;;;;;23.05;50.77;101274.25;16106377;19;130368;-52
2023/09/16 20:05:34;;;;;;;6.97;3.63;;;;;;;23.03;51.18;101270.88;16104332;19;129679;-53
2023/09/16 20:10:57;;;;;;;7.88;3.58;;;;;;;22.99;51.22;101266.97;16108355;19;130609;-53
2023/09/16 20:16:19;;;;;;;7.18;3.78;;;;;;;22.97;50.73;101271.97;16103673;19;129314;-54
2023/09/16 20:21:41;;;;;;;8.35;3.30;;;;;;;22.96;51.06;101266.63;16101066;19;131270;-52
2023/09/16 20:27:03;;;;;;;12.13;4.10;;;;;;;22.94;51.04;101275.28;16110066;19;129386;-53
2023/09/16 20:32:25;;;;;;;8.05;3.35;;;;;;;22.93;50.82;101269.97;16104195;19;131035;-49
2023/09/16 20:37:48;;;;;;;6.90;3.97;;;;;;;22.91;50.94;101255.44;16109828;19;129259;-52
2023/09/16 20:43:10;;;;;;;7.40;4.07;;;;;;;22.89;51.00;101270.47;16106989;19;130534;-52
2023/09/16 20:48:32;;;;;;;7.25;3.58;;;;;;;22.88;50.90;101270.75;16110839;19;131575;-50
2023/09/16 20:53:54;;;;;;;7.38;3.72;;;;;;;22.88;50.94;101274.38;16122075;19;130540;-49
2023/09/16 20:59:18;;;;;;;5.95;3.50;;;;;;;22.87;51.01;101275.47;16113424;19;129447;-52
2023/09/16 21:04:40;;;;;;;5.32;3.10;;;;;;;22.87;50.41;101292.22;16119029;19;129656;-51
2023/09/16 21:10:04;;;;;;;6.47;2.95;;;;;;;22.85;50.75;101286.06;16121865;19;130766;-54
2023/09/16 21:15:27;;;;;;;8.02;3.10;;;;;;;22.84;50.67;101278.78;16117039;19;130030;-53
2023/09/16 21:20:49;;;;;;;5.35;3.25;;;;;;;22.82;50.58;101281.03;16119274;19;130934;-54
2023/09/16 21:26:12;;;;;;;4.72;3.72;;;;;;;22.82;50.62;101260.66;16122554;19;130093;-50
2023/09/16 21:31:34;;;;;;;5.90;4.00;;;;;;;22.79;50.91;101245.28;16120608;19;129702;-54
2023/09/16 21:37:15;;;;;;;5.90;3.67;;;;;;;22.78;50.69;101245.53;16114402;19;130590;-53
2023/09/16 21:42:37;;;;;;;5.80;4.60;;;;;;;22.76;50.74;101231.03;16115351;19;130014;-53
2023/09/16 21:47:59;;;;;;;5.03;4.10;;;;;;;22.74;50.64;101240.53;16118980;19;131187;-53
2023/09/16 21:53:21;;;;;;;7.25;5.82;;;;;;;22.71;50.35;101238.25;16119183;19;130507;-52
2023/09/16 21:58:43;;;;;;;6.25;4.97;;;;;;;22.70;50.56;101235.75;16118627;19;130886;-52
2023/09/16 22:04:06;;;;;;;9.20;6.00;;;;;;;22.69;50.45;101234.06;16115028;19;130357;-54
2023/09/16 22:09:29;;;;;;;9.55;6.18;;;;;;;22.67;50.59;101234.31;16117242;19;131104;-52
2023/09/16 22:14:51;;;;;;;7.20;6.03;;;;;;;22.67;50.76;101239.88;16114609;19;129751;-57
2023/09/16 22:20:14;;;;;;;6.50;5.53;;;;;;;22.67;50.80;101231.53;16120718;19;130542;-52
2023/09/16 22:25:36;;;;;;;7.65;6.05;;;;;;;22.66;50.95;101231.78;16116574;19;129132;-50
2023/09/16 22:30:58;;;;;;;8.20;6.40;;;;;;;22.65;50.87;101224.53;16117254;19;129905;-52
2023/09/16 22:36:20;;;;;;;7.90;6.95;;;;;;;22.63;50.74;101227.59;16118752;19;130051;-51
2023/09/16 22:41:43;;;;;;;6.78;6.10;;;;;;;22.62;50.73;101231.50;16121283;19;129899;-53
2023/09/16 22:47:05;;;;;;;9.73;7.03;;;;;;;22.62;50.45;101233.44;16118525;19;130281;-53
2023/09/16 22:52:31;;;;;;;7.97;6.00;;;;;;;22.61;50.91;101240.97;16120803;19;131069;-54
2023/09/16 22:57:54;;;;;;;7.68;5.63;;;;;;;22.61;50.60;101251.25;16114046;19;129732;-52
2023/09/16 23:03:16;;;;;;;6.68;4.80;;;;;;;22.59;50.58;101243.19;16116634;19;130158;-54
2023/09/16 23:08:38;;;;;;;8.32;4.68;;;;;;;22.59;50.52;101246.78;16118441;19;129170;-54
2023/09/16 23:14:00;;;;;;;5.82;4.70;;;;;;;22.58;50.62;101241.50;16116400;19;130309;-52
2023/09/16 23:19:22;;;;;;;7.93;5.00;;;;;;;22.58;50.68;101224.75;16115633;19;129772;-53
2023/09/16 23:24:45;;;;;;;9.90;4.90;;;;;;;22.57;50.88;101220.28;16112038;19;135098;-53
2023/09/16 23:30:09;;;;;;;5.25;4.75;;;;;;;22.56;50.59;101210.25;16110516;19;129566;-46
2023/09/16 23:35:31;;;;;;;7.43;5.80;;;;;;;22.56;50.68;101210.25;16102493;19;130479;-50
2023/09/16 23:40:53;;;;;;;7.38;5.57;;;;;;;22.54;50.76;101207.72;16114269;19;131022;-52
2023/09/16 23:46:15;;;;;;;8.23;5.82;;;;;;;22.55;50.81;101208.56;16110134;19;131012;-50
2023/09/16 23:51:38;;;;;;;7.72;5.95;;;;;;;22.53;50.85;101207.97;16108106;19;129497;-50
2023/09/16 23:57:00;;;;;;;7.43;5.32;;;;;;;22.53;50.72;101205.19;16109721;19;131337;-51
